createdAt,value
2023-03-12T00:03:33.452Z,98774.34
2023-03-12T00:06:21.732Z,98765.13
2023-03-12T00:09:09.299Z,98775.88
2023-03-12T00:11:56.455Z,98766.56
2023-03-12T00:14:43.484Z,98783.13
2023-03-12T00:17:30.653Z,98778.22
2023-03-12T00:20:18.499Z,98772.34
2023-03-12T00:23:05.728Z,98780.34
2023-03-12T00:25:52.811Z,98772.00
2023-03-12T00:28:40.838Z,98776.78
2023-03-12T00:31:32.838Z,98796.94
2023-03-12T00:34:20.043Z,98776.63
2023-03-12T00:37:08.247Z,98801.03
2023-03-12T00:39:55.380Z,98796.84
2023-03-12T00:42:42.425Z,98795.50
2023-03-12T00:45:29.489Z,98809.72
2023-03-12T00:48:16.544Z,98782.03
2023-03-12T00:51:03.873Z,98804.91
2023-03-12T00:53:50.960Z,98802.59
2023-03-12T00:56:38.033Z,98798.00
2023-03-12T00:59:25.102Z,98804.13
2023-03-12T01:02:12.271Z,98793.94
2023-03-12T01:04:59.311Z,98808.28
2023-03-12T01:07:46.585Z,98809.75
2023-03-12T01:10:33.751Z,98806.25
2023-03-12T01:13:21.499Z,98823.84
2023-03-12T01:16:08.732Z,98814.66
2023-03-12T01:19:00.424Z,98821.22
2023-03-12T01:21:47.536Z,98823.75
2023-03-12T01:24:34.621Z,98824.84
2023-03-12T01:27:21.698Z,98829.19
2023-03-12T01:30:10.333Z,98829.78
2023-03-12T01:32:57.608Z,98817.56
2023-03-12T01:35:45.093Z,98825.63
2023-03-12T01:38:32.259Z,98802.06
2023-03-12T01:41:22.822Z,98818.50
2023-03-12T01:44:13.658Z,98818.66
2023-03-12T01:47:00.805Z,98810.00
2023-03-12T01:49:50.500Z,98791.03
2023-03-12T01:52:39.772Z,98818.66
2023-03-12T01:55:26.925Z,98820.53
2023-03-12T01:58:14.349Z,98809.06
2023-03-12T02:01:01.504Z,98821.47
2023-03-12T02:03:52.568Z,98825.19
2023-03-12T02:06:46.586Z,98822.03
2023-03-12T02:09:38.606Z,98836.16
2023-03-12T02:12:25.680Z,98841.44
2023-03-12T02:15:13.127Z,98816.34
2023-03-12T02:18:02.176Z,98819.06
2023-03-12T02:21:26.458Z,98830.53
2023-03-12T02:24:34.495Z,98825.94
2023-03-12T02:27:22.336Z,98829.78
2023-03-12T02:30:10.808Z,98830.53
2023-03-12T02:33:05.303Z,98838.97
2023-03-12T02:35:53.222Z,98835.03
2023-03-12T02:38:46.626Z,98829.69
2023-03-12T02:41:38.062Z,98842.19
2023-03-12T02:44:33.607Z,98838.88
2023-03-12T02:47:20.643Z,98832.94
2023-03-12T02:50:08.623Z,98858.09
2023-03-12T02:52:55.669Z,98853.75
2023-03-12T02:55:42.733Z,98855.88
2023-03-12T02:58:30.350Z,98862.09
2023-03-12T03:01:18.335Z,98870.41
2023-03-12T03:04:07.872Z,98877.84
2023-03-12T03:06:55.093Z,98883.97
2023-03-12T03:09:42.148Z,98890.31
2023-03-12T03:12:29.344Z,98892.44
2023-03-12T03:15:16.398Z,98888.00
2023-03-12T03:18:04.098Z,98884.94
2023-03-12T03:20:58.909Z,98886.13
2023-03-12T03:23:48.410Z,98893.09
2023-03-12T03:26:35.594Z,98858.03
2023-03-12T03:29:22.797Z,98891.69
2023-03-12T03:32:09.853Z,98895.44
2023-03-12T03:34:57.024Z,98902.06
2023-03-12T03:37:44.374Z,98899.53
2023-03-12T03:40:31.553Z,98891.84
2023-03-12T03:43:18.599Z,98903.59
2023-03-12T03:46:06.632Z,98905.09
2023-03-12T03:48:53.687Z,98910.59
2023-03-12T03:51:42.804Z,98902.91
2023-03-12T03:54:31.282Z,98902.59
2023-03-12T03:57:18.355Z,98894.25
2023-03-12T04:00:10.157Z,98902.06
2023-03-12T04:02:57.290Z,98905.53
2023-03-12T04:05:45.507Z,98902.72
2023-03-12T04:08:35.619Z,98905.41
2023-03-12T04:11:23.254Z,98907.50
2023-03-12T04:14:13.383Z,98904.09
2023-03-12T04:17:00.453Z,98904.25
2023-03-12T04:19:47.618Z,98906.03
2023-03-12T04:22:34.981Z,98922.50
2023-03-12T04:25:22.069Z,98908.25
2023-03-12T04:28:09.180Z,98912.31
2023-03-12T04:31:02.610Z,98941.41
2023-03-12T04:33:49.652Z,98946.66
2023-03-12T04:36:36.760Z,98942.84
2023-03-12T04:39:23.850Z,98935.72
2023-03-12T04:42:11.702Z,98958.09
2023-03-12T04:44:58.714Z,98945.88
2023-03-12T04:47:45.998Z,98953.09
2023-03-12T04:50:33.045Z,98961.13
2023-03-12T04:53:21.088Z,98971.22
2023-03-12T04:56:08.179Z,98970.09
2023-03-12T04:58:55.535Z,98962.50
2023-03-12T05:01:43.275Z,98972.44
2023-03-12T05:04:32.528Z,98970.81
2023-03-12T05:07:20.648Z,98977.09
2023-03-12T05:10:08.347Z,98977.88
2023-03-12T05:12:55.388Z,98979.50
2023-03-12T05:15:42.999Z,98964.03
2023-03-12T05:18:30.050Z,98983.84
2023-03-12T05:21:19.923Z,98981.22
2023-03-12T05:24:07.406Z,98970.06
2023-03-12T05:26:54.509Z,98972.97
2023-03-12T05:29:41.561Z,98984.22
2023-03-12T05:32:28.689Z,98972.25
2023-03-12T05:35:15.820Z,98998.25
2023-03-12T05:38:02.987Z,98964.69
2023-03-12T05:40:58.451Z,98991.31
2023-03-12T05:43:45.545Z,99003.69
2023-03-12T05:46:32.583Z,99005.88
2023-03-12T05:49:20.757Z,99004.03
2023-03-12T05:52:08.611Z,99008.00
2023-03-12T05:54:55.833Z,98989.13
2023-03-12T05:57:42.872Z,99007.94
2023-03-12T06:00:30.821Z,99018.19
2023-03-12T06:03:17.976Z,99019.50
2023-03-12T06:06:05.305Z,99020.56
2023-03-12T06:08:52.785Z,99017.75
2023-03-12T06:11:39.971Z,99013.47
2023-03-12T06:14:27.029Z,99023.56
2023-03-12T06:17:14.146Z,99018.09
2023-03-12T06:20:01.243Z,99027.28
2023-03-12T06:22:48.407Z,99001.22
2023-03-12T06:25:37.749Z,99026.84
2023-03-12T06:28:24.966Z,99034.50
2023-03-12T06:31:12.589Z,99011.06
2023-03-12T06:33:59.701Z,98988.81
2023-03-12T06:36:46.832Z,99026.78
2023-03-12T06:39:33.966Z,99030.06
2023-03-12T06:42:22.653Z,99018.47
2023-03-12T06:45:15.737Z,99031.34
2023-03-12T06:48:02.914Z,99021.13
2023-03-12T06:50:50.633Z,99033.19
2023-03-12T06:53:40.435Z,99033.94
2023-03-12T06:56:30.861Z,99024.66
2023-03-12T06:59:18.559Z,99026.69
2023-03-12T07:02:05.927Z,99024.56
2023-03-12T07:04:53.056Z,99023.53
2023-03-12T07:07:40.212Z,99019.44
2023-03-12T07:10:29.563Z,99027.78
2023-03-12T07:13:17.146Z,99028.03
2023-03-12T07:16:04.518Z,99028.28
2023-03-12T07:18:51.702Z,99030.50
2023-03-12T07:21:39.072Z,99023.59
2023-03-12T07:24:26.227Z,99021.34
2023-03-12T07:27:13.403Z,99020.78
2023-03-12T07:30:00.548Z,99016.34
2023-03-12T07:32:47.752Z,99007.44
2023-03-12T07:35:37.014Z,99020.69
2023-03-12T07:38:24.281Z,99017.63
2023-03-12T07:41:17.334Z,99010.56
2023-03-12T07:44:09.584Z,99005.63
2023-03-12T07:47:02.968Z,99012.28
2023-03-12T07:49:56.908Z,99019.47
2023-03-12T07:52:52.021Z,99012.31
2023-03-12T07:55:39.261Z,98999.28
2023-03-12T07:58:32.872Z,99011.94
2023-03-12T08:01:20.063Z,99015.47
2023-03-12T08:04:07.224Z,99013.06
2023-03-12T08:06:54.339Z,99017.69
2023-03-12T08:09:42.801Z,98997.69
2023-03-12T08:12:30.218Z,99015.72
2023-03-12T08:15:17.475Z,99007.56
2023-03-12T08:18:04.635Z,99020.88
2023-03-12T08:20:58.018Z,99022.34
2023-03-12T08:23:47.412Z,99022.31
2023-03-12T08:26:35.648Z,99020.16
2023-03-12T08:29:22.792Z,99021.34
2023-03-12T08:32:11.012Z,99007.78
2023-03-12T08:34:58.236Z,99018.03
2023-03-12T08:37:45.313Z,99026.56
2023-03-12T08:40:32.440Z,99017.06
2023-03-12T08:43:19.541Z,99023.63
2023-03-12T08:46:06.782Z,99024.53
2023-03-12T08:48:55.429Z,99004.78
2023-03-12T08:51:42.633Z,99027.72
2023-03-12T08:54:30.032Z,99028.44
2023-03-12T08:57:18.443Z,99003.50
2023-03-12T09:00:11.536Z,99038.69
2023-03-12T09:02:58.749Z,99035.13
2023-03-12T09:05:46.043Z,99042.59
2023-03-12T09:08:34.172Z,99039.09
2023-03-12T09:11:21.401Z,99024.06
2023-03-12T09:14:42.686Z,99037.81
2023-03-12T09:17:16.005Z,99020.84
2023-03-12T09:20:07.436Z,99036.28
2023-03-12T09:22:54.494Z,99036.56
2023-03-12T09:25:45.545Z,99034.31
2023-03-12T09:28:32.691Z,99033.63
2023-03-12T09:31:19.917Z,99024.31
2023-03-12T09:34:07.194Z,99024.09
2023-03-12T09:36:54.437Z,99014.91
2023-03-12T09:39:41.609Z,99020.91
2023-03-12T09:42:47.989Z,99031.66
2023-03-12T09:45:43.570Z,99015.28
2023-03-12T09:48:37.677Z,99025.88
2023-03-12T09:51:35.115Z,99033.44
2023-03-12T09:54:38.479Z,99019.63
2023-03-12T09:57:29.112Z,99019.19
2023-03-12T10:00:23.070Z,98999.47
2023-03-12T10:03:42.313Z,99018.38
2023-03-12T10:07:02.117Z,99012.44
2023-03-12T10:10:24.463Z,99020.22
2023-03-12T10:13:17.943Z,99010.78
2023-03-12T10:16:29.881Z,99013.06
2023-03-12T10:19:31.972Z,99009.38
2023-03-12T10:22:36.815Z,99000.72
2023-03-12T10:25:51.182Z,98989.69
2023-03-12T10:28:44.283Z,98997.84
2023-03-12T10:31:37.553Z,99002.66
2023-03-12T10:34:39.322Z,98989.50
2023-03-12T10:37:39.095Z,98997.19
2023-03-12T10:40:29.991Z,98986.41
2023-03-12T10:43:17.041Z,98973.75
2023-03-12T10:46:39.294Z,98981.81
2023-03-12T10:49:30.346Z,98971.91
2023-03-12T10:52:20.582Z,98973.81
2023-03-12T10:55:29.968Z,98963.41
2023-03-12T10:58:24.713Z,98965.78
2023-03-12T11:01:25.614Z,98955.88
2023-03-12T11:04:30.498Z,98966.66
2023-03-12T11:07:20.740Z,98960.53
2023-03-12T11:10:07.809Z,98965.28
2023-03-12T11:13:06.021Z,98960.34
2023-03-12T11:15:54.254Z,98960.84
2023-03-12T11:18:54.704Z,98927.50
2023-03-12T11:21:56.344Z,98953.22
2023-03-12T11:25:01.163Z,98952.63
2023-03-12T11:27:53.952Z,98933.59
2023-03-12T11:30:41.356Z,98943.63
2023-03-12T11:33:28.956Z,98938.06
2023-03-12T11:36:31.760Z,98921.56
2023-03-12T11:39:46.048Z,98927.09
2023-03-12T11:42:54.112Z,98939.94
2023-03-12T11:46:02.867Z,98938.13
2023-03-12T11:49:08.910Z,98950.84
2023-03-12T11:52:18.801Z,98935.03
2023-03-12T11:55:37.552Z,98933.38
2023-03-12T11:58:45.150Z,98914.94
2023-03-12T12:01:52.048Z,98925.47
2023-03-12T12:05:04.281Z,98918.34
2023-03-12T12:07:57.100Z,98914.03
2023-03-12T12:11:07.556Z,98911.66
2023-03-12T12:14:13.584Z,98916.97
2023-03-12T12:17:36.490Z,98904.31
2023-03-12T12:20:56.750Z,98905.69
2023-03-12T12:24:25.334Z,98913.41
2023-03-12T12:27:37.061Z,98902.22
2023-03-12T12:30:55.056Z,98923.47
2023-03-12T12:34:06.879Z,98917.25
2023-03-12T12:37:12.849Z,98909.78
2023-03-12T12:40:27.368Z,98905.19
2023-03-12T12:43:38.117Z,98905.19
2023-03-12T12:46:49.123Z,98909.94
2023-03-12T12:49:47.766Z,98896.41
2023-03-12T12:52:35.239Z,98907.59
2023-03-12T12:55:53.796Z,98875.63
2023-03-12T12:59:03.581Z,98901.06
2023-03-12T13:01:52.923Z,98899.53
2023-03-12T13:04:43.173Z,98891.28
2023-03-12T13:07:34.889Z,98908.72
2023-03-12T13:10:34.569Z,98901.19
2023-03-12T13:13:26.858Z,98907.78
2023-03-12T13:16:36.945Z,98910.66
2023-03-12T13:19:32.593Z,98911.03
2023-03-12T13:22:25.859Z,98917.81
2023-03-12T13:25:45.965Z,98934.53
2023-03-12T13:28:38.945Z,98928.56
2023-03-12T13:31:29.786Z,98930.66
2023-03-12T13:34:20.094Z,98922.47
2023-03-12T13:37:20.181Z,98908.91
2023-03-12T13:40:27.386Z,98926.63
2023-03-12T13:43:30.780Z,98924.16
2023-03-12T13:46:29.084Z,98934.91
2023-03-12T13:49:20.642Z,98925.44
2023-03-12T13:52:22.701Z,98936.97
2023-03-12T13:55:29.019Z,98935.47
2023-03-12T13:58:25.702Z,98951.13
2023-03-12T14:01:20.921Z,98940.25
2023-03-12T14:04:17.787Z,98944.69
2023-03-12T14:07:26.335Z,98952.41
2023-03-12T14:10:22.672Z,98945.59
2023-03-12T14:13:17.792Z,98954.19
2023-03-12T14:16:11.290Z,98945.56
2023-03-12T14:18:58.750Z,98949.25
2023-03-12T14:21:49.469Z,98942.66
2023-03-12T14:24:48.452Z,98948.69
2023-03-12T14:27:37.013Z,98929.53
2023-03-12T14:30:36.327Z,98920.09
2023-03-12T14:33:26.613Z,98939.00
2023-03-12T14:36:18.757Z,98924.34
2023-03-12T14:39:37.111Z,98917.13
2023-03-12T14:42:39.907Z,98909.88
2023-03-12T14:45:27.869Z,98905.44
2023-03-12T14:48:15.387Z,98899.47
2023-03-12T14:51:05.850Z,98888.72
2023-03-12T14:53:54.571Z,98881.94
2023-03-12T14:56:44.884Z,98903.34
2023-03-12T14:59:37.500Z,98905.88
2023-03-12T15:02:26.414Z,98902.94
2023-03-12T15:05:18.566Z,98891.97
2023-03-12T15:08:06.632Z,98853.38
2023-03-12T15:10:58.926Z,98900.41
2023-03-12T15:13:47.534Z,98888.03
2023-03-12T15:16:36.522Z,98892.81
2023-03-12T15:19:29.276Z,98861.88
2023-03-12T15:22:20.878Z,98891.53
2023-03-12T15:25:35.987Z,98888.16
2023-03-12T15:28:27.113Z,98863.41
2023-03-12T15:31:21.205Z,98886.75
2023-03-12T15:34:11.854Z,98868.34
2023-03-12T15:37:04.988Z,98825.09
2023-03-12T15:39:54.437Z,98867.16
2023-03-12T15:42:46.556Z,98848.78
2023-03-12T15:45:40.004Z,98864.94
2023-03-12T15:48:41.228Z,98875.00
2023-03-12T15:51:34.391Z,98884.94
2023-03-12T15:54:28.100Z,98875.38
2023-03-12T15:57:24.057Z,98883.47
2023-03-12T16:00:14.278Z,98896.81
2023-03-12T16:03:15.500Z,98888.94
2023-03-12T16:06:02.929Z,98879.88
2023-03-12T16:09:02.256Z,98874.88
2023-03-12T16:11:53.735Z,98884.03
2023-03-12T16:14:41.484Z,98880.31
2023-03-12T16:17:32.914Z,98877.41
2023-03-12T16:20:22.280Z,98882.06
2023-03-12T16:23:10.486Z,98878.25
2023-03-12T16:26:00.152Z,98879.13
2023-03-12T16:28:49.090Z,98878.94
2023-03-12T16:31:39.515Z,98881.75
2023-03-12T16:34:29.419Z,98874.94
2023-03-12T16:37:17.254Z,98859.66
2023-03-12T16:40:06.807Z,98857.84
2023-03-12T16:42:55.829Z,98878.41
2023-03-12T16:45:47.560Z,98869.66
2023-03-12T16:48:37.242Z,98885.00
2023-03-12T16:51:25.740Z,98878.03
2023-03-12T16:54:15.050Z,98862.09
2023-03-12T16:57:02.628Z,98874.59
2023-03-12T16:59:50.986Z,98895.88
2023-03-12T17:02:39.214Z,98891.91
2023-03-12T17:05:31.132Z,98900.69
2023-03-12T17:08:20.015Z,98880.44
2023-03-12T17:11:15.703Z,98884.75
2023-03-12T17:14:14.469Z,98879.94
2023-03-12T17:17:03.348Z,98893.41
2023-03-12T17:19:53.405Z,98901.06
2023-03-12T17:22:41.901Z,98912.25
2023-03-12T17:25:33.633Z,98920.59
2023-03-12T17:28:23.007Z,98912.53
2023-03-12T17:31:11.364Z,98913.69
2023-03-12T17:34:05.690Z,98928.13
2023-03-12T17:36:55.161Z,98925.22
2023-03-12T17:39:52.182Z,98924.25
2023-03-12T17:42:48.311Z,98928.47
2023-03-12T17:45:38.130Z,98938.88
2023-03-12T17:48:26.936Z,98927.69
2023-03-12T17:51:14.947Z,98935.97
2023-03-12T17:54:02.363Z,98928.94
2023-03-12T17:56:50.164Z,98909.72
2023-03-12T17:59:38.556Z,98929.84
2023-03-12T18:02:26.893Z,98943.91
2023-03-12T18:05:18.631Z,98939.06
2023-03-12T18:08:06.692Z,98915.53
2023-03-12T18:10:54.723Z,98919.41
2023-03-12T18:13:42.676Z,98908.94
2023-03-12T18:16:30.707Z,98920.06
2023-03-12T18:19:19.501Z,98922.34
2023-03-12T18:22:07.540Z,98922.81
2023-03-12T18:24:55.337Z,98916.38
2023-03-12T18:27:43.535Z,98936.41
2023-03-12T18:30:33.242Z,98925.72
2023-03-12T18:33:21.505Z,98941.03
2023-03-12T18:36:10.241Z,98945.50
2023-03-12T18:39:00.155Z,98939.06
2023-03-12T18:41:48.575Z,98932.03
2023-03-12T18:44:36.656Z,98917.06
2023-03-12T18:47:24.458Z,98931.84
2023-03-12T18:50:13.430Z,98953.66
2023-03-12T18:53:01.456Z,98937.59
2023-03-12T18:55:56.955Z,98951.78
2023-03-12T18:58:44.795Z,98956.44
2023-03-12T19:01:33.383Z,98941.09
2023-03-12T19:04:21.745Z,98965.03
2023-03-12T19:07:14.191Z,98967.06
2023-03-12T19:10:02.400Z,98952.28
2023-03-12T19:12:53.149Z,98954.63
2023-03-12T19:15:42.092Z,98959.44
2023-03-12T19:18:32.588Z,98964.44
2023-03-12T19:21:24.793Z,98964.69
2023-03-12T19:24:13.968Z,98959.78
2023-03-12T19:27:02.220Z,98969.19
2023-03-12T19:29:51.270Z,98969.97
2023-03-12T19:32:44.149Z,98959.38
2023-03-12T19:35:32.975Z,98955.66
2023-03-12T19:38:21.586Z,98952.75
2023-03-12T19:41:10.197Z,98968.69
2023-03-12T19:43:58.371Z,98959.44
2023-03-12T19:46:47.043Z,98957.97
2023-03-12T19:49:38.246Z,98952.19
2023-03-12T19:52:29.034Z,98970.88
2023-03-12T19:55:17.807Z,98962.31
2023-03-12T19:58:06.336Z,98967.38
2023-03-12T20:00:54.710Z,98955.56
2023-03-12T20:03:43.833Z,98951.59
2023-03-12T20:06:31.841Z,98958.66
2023-03-12T20:09:20.015Z,98959.41
2023-03-12T20:12:11.052Z,98975.28
2023-03-12T20:14:59.597Z,98966.25
2023-03-12T20:17:51.982Z,98955.19
2023-03-12T20:20:43.450Z,98952.88
2023-03-12T20:23:31.732Z,98940.91
2023-03-12T20:29:22.511Z,98940.19
2023-03-12T20:32:12.694Z,98947.59
2023-03-12T20:35:02.152Z,98919.63
2023-03-12T20:37:52.249Z,98938.97
2023-03-12T20:40:40.399Z,98946.25
2023-03-12T20:43:30.437Z,98931.72
2023-03-12T20:46:19.767Z,98943.59
2023-03-12T20:49:13.817Z,98952.53
2023-03-12T20:52:01.724Z,98940.06
2023-03-12T20:54:49.310Z,98940.72
2023-03-12T20:57:37.386Z,98940.97
2023-03-12T21:00:25.407Z,98937.47
2023-03-12T21:03:14.615Z,98907.88
2023-03-12T21:06:05.645Z,98937.53
2023-03-12T21:08:56.829Z,98943.72
2023-03-12T21:11:44.888Z,98936.22
2023-03-12T21:14:32.722Z,98936.06
2023-03-12T21:17:20.381Z,98929.88
2023-03-12T21:20:13.529Z,98943.50
2023-03-12T21:23:01.120Z,98938.41
2023-03-12T21:25:48.316Z,98941.19
2023-03-12T21:28:36.150Z,98913.75
2023-03-12T21:31:24.255Z,98937.94
2023-03-12T21:34:12.017Z,98919.22
2023-03-12T21:36:59.236Z,98957.03
2023-03-12T21:39:46.839Z,98947.59
2023-03-12T21:42:34.348Z,98944.94
2023-03-12T21:45:21.697Z,98947.59
2023-03-12T21:48:08.739Z,98953.53
2023-03-12T21:50:55.860Z,98962.88
2023-03-12T21:53:43.216Z,98948.38
2023-03-12T21:56:30.466Z,98964.69
2023-03-12T21:59:17.534Z,98950.09
2023-03-12T22:02:04.711Z,98948.78
2023-03-12T22:04:51.852Z,98965.16
2023-03-12T22:07:39.616Z,98962.06
2023-03-12T22:10:26.697Z,98971.84
2023-03-12T22:13:13.770Z,98976.44
2023-03-12T22:16:03.950Z,98959.34
2023-03-12T22:18:51.283Z,98980.31
2023-03-12T22:21:38.693Z,98982.16
2023-03-12T22:24:25.812Z,98937.66
2023-03-12T22:27:12.906Z,98970.88
2023-03-12T22:29:59.986Z,98975.06
2023-03-12T22:32:47.188Z,98958.13
2023-03-12T22:35:34.319Z,98974.22
2023-03-12T22:38:22.165Z,98988.97
2023-03-12T22:41:13.322Z,98989.63
2023-03-12T22:44:06.107Z,98987.00
2023-03-12T22:46:53.173Z,98991.44
2023-03-12T22:49:40.231Z,99004.19
2023-03-12T22:52:27.284Z,99004.09
2023-03-12T22:55:14.417Z,98998.47
2023-03-12T22:58:01.503Z,98995.19
2023-03-12T23:00:48.526Z,98994.59
2023-03-12T23:03:37.171Z,98996.78
2023-03-12T23:06:27.040Z,98977.53
2023-03-12T23:09:14.391Z,98979.19
2023-03-12T23:12:01.413Z,98968.44
2023-03-12T23:14:48.591Z,98970.06
2023-03-12T23:17:35.810Z,98976.41
2023-03-12T23:20:23.837Z,98971.25
2023-03-12T23:23:11.736Z,98996.47
2023-03-12T23:26:00.607Z,99005.06
2023-03-12T23:28:47.776Z,98991.75
2023-03-12T23:31:34.890Z,99005.31
2023-03-12T23:34:22.562Z,98990.66
2023-03-12T23:37:09.720Z,98990.31
2023-03-12T23:39:56.753Z,98994.53
2023-03-12T23:42:44.313Z,98990.53
2023-03-12T23:45:31.305Z,98995.28
2023-03-12T23:48:18.459Z,99003.50
2023-03-12T23:51:08.788Z,98997.47
2023-03-12T23:54:05.470Z,98974.69
2023-03-12T23:56:52.606Z,98990.81
2023-03-12T23:59:39.674Z,98982.09
